»·PEaware :: N1873K KSMX-KCRQ

N1873K :: KSMX-KCRQ

FLIGHT INFORMATION

Flight Status: Arrived
Operator: Privately registered:
United States
More flights under this callsign
Pilot: John H. (10732)
Aircraft: BEECH AIRCRAFT DUKE
(BE60)
More flights by this aircraft type
Origin: KSMX Santa Maria Pub/Capt Hancock
United States
Destination: KCRQ McClellan-Palomar
United States
More flights between these airports :: More routes between these airports
Route: +RZS V597 OCN
File this flight plan on PilotEdge
Remarks:
Altitude:
(Current/Filed)
15,000ft
Speed:
(Current/Filed)
215kts
Departed: 31-May-19 04:44 PM
Arrived: 31-May-19 05:51 PM
Distance/Time
Traveled:
190nm/1:07
Distance/Time
To Go:
Arrived

Flight Plot

Page will automatically refresh every two minutes.


Map Options




Map Legend


Flown Route
Filed Route
Departure Airport
Arrival Airport
Navaid (VOR, NDB)
Fix

Horizontal Profiles

Position Reports

Time Latitude Longitude Heading Altitude Ground
Speed
31-May-19 16:31 34.900639 -120.451661 133 264ft 0kts
31-May-19 16:32 34.900639 -120.451661 133 264ft 0kts
31-May-19 16:33 34.900639 -120.451661 133 264ft 0kts
31-May-19 16:34 34.900639 -120.451661 133 264ft 0kts
31-May-19 16:35 34.900639 -120.451661 133 264ft 0kts
31-May-19 16:36 34.900639 -120.451661 133 264ft 0kts
31-May-19 16:37 34.900639 -120.451661 133 264ft 0kts
31-May-19 16:38 34.900595 -120.451635 158 264ft 3kts
31-May-19 16:39 34.897927 -120.449507 135 264ft 27kts
31-May-19 16:40 34.894516 -120.445438 135 264ft 4kts
31-May-19 16:41 34.893123 -120.445348 224 264ft 0kts
31-May-19 16:42 34.893123 -120.445348 224 264ft 0kts
31-May-19 16:43 34.896863 -120.450733 314 264ft 98kts
31-May-19 16:44 34.916736 -120.479944 302 1873ft 108kts
31-May-19 16:45 34.896780 -120.494236 150 2964ft 152kts
31-May-19 16:46 34.877780 -120.450580 112 4353ft 142kts
31-May-19 16:48 34.858376 -120.410899 117 5829ft 132kts
31-May-19 16:49 34.838699 -120.373966 117 7197ft 130kts
31-May-19 16:50 34.818167 -120.336079 119 8405ft 138kts
31-May-19 16:51 34.794647 -120.293012 121 9011ft 181kts
31-May-19 16:52 34.763708 -120.237095 121 8999ft 209kts
31-May-19 16:53 34.731307 -120.177489 121 8994ft 212kts
31-May-19 16:54 34.698234 -120.116534 121 8995ft 217kts
31-May-19 16:55 34.664808 -120.055024 121 8995ft 218kts
31-May-19 16:56 34.631277 -119.993384 124 8993ft 218kts
31-May-19 16:57 34.597448 -119.931262 123 8981ft 221kts
31-May-19 16:58 34.563337 -119.868692 123 8981ft 222kts
31-May-19 16:59 34.529234 -119.806339 123 8982ft 222kts
31-May-19 17:00 34.504268 -119.739071 100 8977ft 222kts
31-May-19 17:01 34.492060 -119.665864 100 8979ft 221kts
31-May-19 17:02 34.479769 -119.593056 100 8999ft 220kts
31-May-19 17:03 34.467369 -119.519979 101 9000ft 221kts
31-May-19 17:04 34.454968 -119.447198 101 9001ft 222kts
31-May-19 17:05 34.442394 -119.373699 101 9002ft 222kts
31-May-19 17:06 34.429856 -119.300672 101 9003ft 221kts
31-May-19 17:07 34.417356 -119.228114 102 9008ft 219kts
31-May-19 17:08 34.404841 -119.155743 102 9008ft 219kts
31-May-19 17:08 34.394381 -119.095470 102 9009ft 219kts
31-May-19 17:09 34.381853 -119.023523 102 9014ft 217kts
31-May-19 17:11 34.367245 -118.939966 102 9015ft 217kts
31-May-19 17:11 34.356310 -118.880677 107 9014ft 217kts
31-May-19 17:12 34.333864 -118.813275 113 9014ft 216kts
31-May-19 17:13 34.310765 -118.745587 113 9032ft 216kts
31-May-19 17:14 34.287807 -118.678404 113 9034ft 216kts
31-May-19 17:15 34.264658 -118.610801 113 9026ft 217kts
31-May-19 17:16 34.241462 -118.543205 113 9011ft 217kts
31-May-19 17:17 34.218505 -118.475846 111 9012ft 217kts
31-May-19 17:18 34.197931 -118.406815 110 9011ft 218kts
31-May-19 17:19 34.177170 -118.338145 111 9002ft 218kts
31-May-19 17:20 34.153559 -118.271088 132 8991ft 216kts
31-May-19 17:21 34.099819 -118.242312 150 8996ft 214kts
31-May-19 17:22 34.047573 -118.207615 153 8991ft 214kts
31-May-19 17:23 33.994132 -118.175850 154 8994ft 214kts
31-May-19 17:24 33.940447 -118.144741 155 8993ft 214kts
31-May-19 17:25 33.886672 -118.113767 155 8992ft 214kts
31-May-19 17:26 33.833073 -118.082966 155 8991ft 213kts
31-May-19 17:27 33.780185 -118.050351 142 8995ft 214kts
31-May-19 17:28 33.737426 -118.000073 136 9008ft 216kts
31-May-19 17:29 33.694455 -117.949191 137 8997ft 217kts
31-May-19 17:30 33.651319 -117.898260 137 8995ft 217kts
31-May-19 17:31 33.608075 -117.847287 137 8991ft 218kts
31-May-19 17:32 33.564731 -117.796285 137 8993ft 218kts
31-May-19 17:33 33.521183 -117.745095 137 8992ft 218kts
31-May-19 17:34 33.477730 -117.694147 137 8993ft 218kts
31-May-19 17:35 33.434230 -117.643287 137 8993ft 218kts
31-May-19 17:36 33.390309 -117.591956 136 8610ft 232kts
31-May-19 17:37 33.342301 -117.535936 136 7412ft 243kts
31-May-19 17:38 33.293966 -117.479587 136 6213ft 241kts
31-May-19 17:39 33.247309 -117.425270 137 5126ft 221kts
31-May-19 17:40 33.231549 -117.360761 91 4634ft 208kts
31-May-19 17:41 33.226011 -117.292144 99 4505ft 208kts
31-May-19 17:42 33.217910 -117.223611 98 4510ft 208kts
31-May-19 17:43 33.209762 -117.155034 98 4508ft 208kts
31-May-19 17:44 33.198030 -117.088276 131 4501ft 204kts
31-May-19 17:45 33.155630 -117.106718 264 3231ft 206kts
31-May-19 17:46 33.146558 -117.167126 257 2205ft 162kts
31-May-19 17:47 33.139851 -117.208165 258 1323ft 100kts
31-May-19 17:48 33.134732 -117.239762 256 809ft 89kts
31-May-19 17:49 33.129861 -117.270312 258 426ft 93kts
31-May-19 17:50 33.128935 -117.280129 305 303ft 0kts
31-May-19 17:51 33.129445 -117.279827 355 303ft 0kts

Navigation Log

Ident Type
Flight plan parsing failed, navigation log unavailable